Time,TemperatureF,DewpointF,PressureIn,WindDirection,WindDirectionDegrees,WindSpeedMPH,WindSpeedGustMPH,Humidity,HourlyPrecipIn,Conditions,Clouds,dailyrainin,SolarRadiationWatts/m^2,SoftwareType,DateUTC
2013-02-21 00:01:00,43.6,32.6,29.41,NE,42,6.4,7.0,64,-99.99,,,0.00,0,rob ver 1A,2013-02-21 07:01:00,
2013-02-21 00:06:00,45.2,32.7,29.41,NE,37,4.9,5.3,60,-99.99,,,0.00,0,rob ver 1A,2013-02-21 07:06:00,
2013-02-21 00:11:00,46.3,32.6,29.41,NE,46,3.7,4.2,58,-99.99,,,0.00,0,rob ver 1A,2013-02-21 07:11:00,
2013-02-21 00:16:00,44.7,32.3,29.41,NE,52,3.7,4.7,61,-99.99,,,0.00,0,rob ver 1A,2013-02-21 07:16:00,
2013-02-21 00:21:00,44.0,32.4,29.41,NE,42,4.7,5.1,63,-99.99,,,0.00,0,rob ver 1A,2013-02-21 07:21:00,
2013-02-21 00:26:00,43.6,32.6,29.41,NNE,27,5.7,6.4,64,-99.99,,,0.00,0,rob ver 1A,2013-02-21 07:26:00,
2013-02-21 00:31:00,43.8,32.6,29.41,NE,45,3.9,5.1,64,-99.99,,,0.00,0,rob ver 1A,2013-02-21 07:31:00,
2013-02-21 00:36:00,43.7,32.5,29.41,NE,50,3.2,4.0,64,-99.99,,,0.00,0,rob ver 1A,2013-02-21 07:36:00,
2013-02-21 00:41:00,43.6,32.6,29.41,NE,46,3.6,4.4,64,-99.99,,,0.00,0,rob ver 1A,2013-02-21 07:41:00,
2013-02-21 00:46:00,43.6,32.5,29.41,NE,51,3.6,4.0,64,-99.99,,,0.00,0,rob ver 1A,2013-02-21 07:46:00,
2013-02-21 00:51:00,43.8,32.5,29.41,ENE,69,3.4,4.2,64,-99.99,,,0.00,0,rob ver 1A,2013-02-21 07:51:00,
2013-02-21 00:56:00,43.7,32.4,29.41,ENE,60,3.6,4.0,64,-99.99,,,0.00,0,rob ver 1B,2013-02-21 07:56:00,
2013-02-21 01:02:00,43.2,32.4,29.41,ENE,66,3.6,4.4,65,-99.99,,,0.00,0,rob ver 1A,2013-02-21 08:02:00,
2013-02-21 01:07:00,42.8,32.4,29.41,NE,52,4.1,5.5,66,-99.99,,,0.00,0,rob ver 1A,2013-02-21 08:07:00,
2013-02-21 01:12:00,42.7,32.5,29.41,ENE,60,4.0,4.9,66,-99.99,,,0.00,0,rob ver 1A,2013-02-21 08:12:00,
2013-02-21 01:17:00,43.0,32.5,29.41,East,93,3.8,4.5,66,-99.99,,,0.00,0,rob ver 1A,2013-02-21 08:17:00,
2013-02-21 01:22:00,43.6,32.4,29.41,East,88,2.8,3.3,64,-99.99,,,0.00,0,rob ver 1A,2013-02-21 08:22:00,
2013-02-21 01:27:00,43.3,32.2,29.41,East,87,3.1,3.8,64,-99.99,,,0.00,0,rob ver 1A,2013-02-21 08:27:00,
2013-02-21 01:32:00,43.0,32.3,29.41,ESE,111,3.8,4.3,65,-99.99,,,0.00,0,rob ver 1A,2013-02-21 08:32:00,
2013-02-21 01:37:00,42.6,32.3,29.41,ESE,111,3.7,4.0,66,-99.99,,,0.00,0,rob ver 1B,2013-02-21 08:37:00,
2013-02-21 01:42:00,42.5,32.3,29.41,SE,134,4.5,5.0,66,-99.99,,,0.00,0,rob ver 1A,2013-02-21 08:42:00,
2013-02-21 01:47:00,43.8,32.5,29.41,SSE,147,5.8,6.6,63,-99.99,,,0.00,0,rob ver 1A,2013-02-21 08:47:00,
2013-02-21 01:52:00,45.2,32.3,29.41,SE,141,6.5,7.4,60,-99.99,,,0.00,0,rob ver 1A,2013-02-21 08:52:00,
2013-02-21 01:57:00,45.6,32.2,29.44,SE,144,6.8,7.6,59,-99.99,,,0.00,0,rob ver 1A,2013-02-21 08:57:00,
2013-02-21 02:02:00,45.4,32.2,29.44,SSE,147,5.7,6.8,59,-99.99,,,0.00,0,rob ver 1A,2013-02-21 09:02:00,
2013-02-21 02:07:00,45.8,32.1,29.44,SSE,164,5.7,8.4,58,-99.99,,,0.00,0,rob ver 1A,2013-02-21 09:07:00,
2013-02-21 02:12:00,46.4,32.0,29.44,SE,141,6.8,8.2,57,-99.99,,,0.00,0,rob ver 1A,2013-02-21 09:12:00,
2013-02-21 02:17:00,45.9,32.0,29.44,SE,131,5.1,6.3,58,-99.99,,,0.00,0,rob ver 1A,2013-02-21 09:17:00,
2013-02-21 02:22:00,46.1,31.9,29.44,SSE,147,7.4,9.3,57,-99.99,,,0.00,0,rob ver 1A,2013-02-21 09:22:00,
2013-02-21 02:27:00,45.6,31.8,29.44,SE,141,6.3,6.7,58,-99.99,,,0.00,0,rob ver 1A,2013-02-21 09:27:00,
2013-02-21 02:32:00,44.9,31.8,29.44,SE,142,6.2,6.6,60,-99.99,,,0.00,0,rob ver 1A,2013-02-21 09:32:00,
2013-02-21 02:37:00,44.4,31.8,29.44,SE,143,5.0,5.5,60,-99.99,,,0.00,0,rob ver 1A,2013-02-21 09:37:00,
2013-02-21 02:42:00,44.1,31.8,29.44,SE,141,4.5,5.0,61,-99.99,,,0.00,0,rob ver 1B,2013-02-21 09:42:00,
2013-02-21 02:47:00,44.1,31.8,29.44,SE,143,4.6,5.1,61,-99.99,,,0.00,0,rob ver 1A,2013-02-21 09:47:00,
2013-02-21 02:52:00,44.0,31.7,29.44,SE,130,4.2,4.5,61,-99.99,,,0.00,0,rob ver 1A,2013-02-21 09:52:00,
2013-02-21 02:57:00,43.8,31.7,29.44,SE,138,4.4,4.8,62,-99.99,,,0.00,0,rob ver 1A,2013-02-21 09:57:00,
2013-02-21 03:02:00,43.8,31.7,29.44,SSE,147,3.7,4.3,61,-99.99,,,0.00,0,rob ver 1A,2013-02-21 10:02:00,
2013-02-21 03:07:00,43.9,31.7,29.44,SE,141,2.3,2.6,61,-99.99,,,0.00,0,rob ver 1B,2013-02-21 10:07:00,
2013-02-21 03:13:00,43.8,31.6,29.44,East,86,2.4,2.8,61,-99.99,,,0.00,0,rob ver 1A,2013-02-21 10:13:00,
2013-02-21 03:18:00,43.9,31.7,29.44,East,88,2.7,2.9,62,-99.99,,,0.00,0,rob ver 1A,2013-02-21 10:18:00,
2013-02-21 03:23:00,43.7,31.7,29.44,ENE,60,3.1,3.3,62,-99.99,,,0.00,0,rob ver 1A,2013-02-21 10:23:00,
2013-02-21 03:28:00,44.2,31.6,29.44,East,87,1.7,2.2,60,-99.99,,,0.00,0,rob ver 1A,2013-02-21 10:28:00,
2013-02-21 03:33:00,45.0,31.4,29.44,West,260,1.0,1.7,58,-99.99,,,0.00,0,rob ver 1A,2013-02-21 10:33:00,
2013-02-21 03:38:00,45.6,31.2,29.44,SW,224,1.4,2.1,57,-99.99,,,0.00,0,rob ver 1A,2013-02-21 10:38:00,
2013-02-21 03:43:00,45.5,31.2,29.44,SW,216,1.2,2.1,57,-99.99,,,0.00,0,rob ver 1A,2013-02-21 10:43:00,
2013-02-21 03:48:00,45.4,31.1,29.44,SSE,147,2.4,3.5,57,-99.99,,,0.00,0,rob ver 1A,2013-02-21 10:48:00,
2013-02-21 03:53:00,45.0,31.1,29.44,SSE,156,2.3,2.8,58,-99.99,,,0.00,0,rob ver 1A,2013-02-21 10:53:00,
2013-02-21 03:58:00,44.9,31.1,29.44,SSE,168,2.5,3.2,57,-99.99,,,0.00,0,rob ver 1A,2013-02-21 10:58:00,
2013-02-21 04:03:00,44.5,31.0,29.44,South,174,2.4,2.8,58,-99.99,,,0.00,0,rob ver 1A,2013-02-21 11:03:00,
2013-02-21 04:08:00,44.2,31.0,29.44,South,175,1.9,2.7,59,-99.99,,,0.00,0,rob ver 1A,2013-02-21 11:08:00,
2013-02-21 04:13:00,44.1,31.0,29.44,South,171,1.5,1.8,59,-99.99,,,0.00,0,rob ver 1A,2013-02-21 11:13:00,
2013-02-21 04:18:00,44.0,31.0,29.44,SE,141,1.4,2.1,60,-99.99,,,0.00,0,rob ver 1A,2013-02-21 11:18:00,
2013-02-21 04:23:00,43.6,30.9,29.44,SE,138,1.5,1.8,60,-99.99,,,0.00,0,rob ver 1A,2013-02-21 11:23:00,
2013-02-21 04:28:00,43.1,31.0,29.44,SE,126,1.3,1.9,62,-99.99,,,0.00,0,rob ver 1A,2013-02-21 11:28:00,
2013-02-21 04:33:00,42.8,31.0,29.44,ENE,74,0.8,1.2,62,-99.99,,,0.00,0,rob ver 1A,2013-02-21 11:33:00,
2013-02-21 04:38:00,42.7,31.0,29.44,NNE,16,2.0,2.4,62,-99.99,,,0.00,0,rob ver 1A,2013-02-21 11:38:00,
2013-02-21 04:43:00,43.2,31.0,29.44,NNE,23,1.5,2.1,61,-99.99,,,0.00,0,rob ver 1A,2013-02-21 11:43:00,
2013-02-21 04:48:00,43.9,30.9,29.44,South,177,1.2,2.3,59,-99.99,,,0.00,0,rob ver 1A,2013-02-21 11:48:00,
2013-02-21 04:53:00,44.1,30.6,29.44,NE,52,0.9,1.4,58,-99.99,,,0.00,0,rob ver 1A,2013-02-21 11:53:00,
2013-02-21 04:58:00,43.8,30.7,29.44,NNE,22,2.3,2.7,59,-99.99,,,0.00,0,rob ver 1B,2013-02-21 11:58:00,
2013-02-21 05:04:00,43.1,30.4,29.44,NNE,19,5.0,5.2,61,-99.99,,,0.00,0,rob ver 1A,2013-02-21 12:04:00,
2013-02-21 05:09:00,41.7,30.4,29.44,NNE,13,4.6,4.9,64,-99.99,,,0.00,0,rob ver 1A,2013-02-21 12:09:00,
2013-02-21 05:14:00,41.3,30.5,29.44,North,11,4.6,4.9,65,-99.99,,,0.00,0,rob ver 1A,2013-02-21 12:14:00,
2013-02-21 05:19:00,40.7,30.4,29.44,NNE,33,2.8,3.2,66,-99.99,,,0.00,0,rob ver 1A,2013-02-21 12:19:00,
2013-02-21 05:24:00,41.3,30.7,29.44,NE,56,3.2,3.7,65,-99.99,,,0.00,0,rob ver 1A,2013-02-21 12:24:00,
2013-02-21 05:29:00,41.0,30.7,29.44,NE,55,3.2,3.8,66,-99.99,,,0.00,0,rob ver 1A,2013-02-21 12:29:00,
2013-02-21 05:34:00,41.7,30.7,29.44,ENE,61,3.0,3.5,64,-99.99,,,0.00,0,rob ver 1A,2013-02-21 12:34:00,
2013-02-21 05:39:00,42.1,30.8,29.44,ENE,74,2.2,2.8,63,-99.99,,,0.00,0,rob ver 1A,2013-02-21 12:39:00,
2013-02-21 05:44:00,42.6,30.4,29.44,East,82,2.3,2.6,62,-99.99,,,0.00,0,rob ver 1A,2013-02-21 12:44:00,
2013-02-21 05:49:00,42.1,30.8,29.44,East,91,1.6,1.9,63,-99.99,,,0.00,0,rob ver 1A,2013-02-21 12:49:00,
2013-02-21 05:54:00,42.4,30.3,29.44,NNE,26,1.8,2.2,62,-99.99,,,0.00,0,rob ver 1A,2013-02-21 12:54:00,
2013-02-21 05:59:00,41.1,30.4,29.44,NNE,21,3.2,3.6,65,-99.99,,,0.00,0,rob ver 1A,2013-02-21 12:59:00,
2013-02-21 06:04:00,40.6,30.4,29.44,NE,47,2.2,2.4,66,-99.99,,,0.00,0,rob ver 1A,2013-02-21 13:04:00,
2013-02-21 06:09:00,41.0,30.3,29.44,NE,53,3.5,4.1,65,-99.99,,,0.00,0,rob ver 1A,2013-02-21 13:09:00,
2013-02-21 06:14:00,40.3,30.3,29.44,NE,39,4.4,5.0,67,-99.99,,,0.00,0,rob ver 1A,2013-02-21 13:14:00,
2013-02-21 06:19:00,39.8,30.5,29.44,NE,47,4.5,5.3,68,-99.99,,,0.00,0,rob ver 1A,2013-02-21 13:19:00,
2013-02-21 06:24:00,39.8,30.6,29.44,NE,45,4.8,5.1,69,-99.99,,,0.00,0,rob ver 1A,2013-02-21 13:24:00,
2013-02-21 06:29:00,39.4,30.7,29.44,NE,45,4.6,5.1,71,-99.99,,,0.00,0,rob ver 1B,2013-02-21 13:29:00,
2013-02-21 06:34:00,39.0,30.8,29.44,NE,42,4.5,5.3,72,-99.99,,,0.00,0,rob ver 1A,2013-02-21 13:34:00,
2013-02-21 06:39:00,39.2,30.9,29.44,NE,45,4.3,4.8,72,-99.99,,,0.00,0,rob ver 1A,2013-02-21 13:39:00,
2013-02-21 06:44:00,38.9,30.8,29.44,ESE,119,3.6,4.3,72,-99.99,,,0.00,0,rob ver 1A,2013-02-21 13:44:00,
2013-02-21 06:49:00,37.8,30.3,29.44,SSE,150,4.8,5.7,74,-99.99,,,0.00,0,rob ver 1A,2013-02-21 13:49:00,
2013-02-21 06:54:00,36.7,30.4,29.44,ESE,119,3.1,3.4,77,-99.99,,,0.00,0,rob ver 1A,2013-02-21 13:54:00,
2013-02-21 06:59:00,36.5,30.7,29.44,ENE,64,1.7,2.2,79,-99.99,,,0.00,.329,rob ver 1A,2013-02-21 13:59:00,
2013-02-21 07:05:00,36.5,30.7,29.44,NE,54,2.1,2.2,79,-99.99,,,0.00,1.316,rob ver 1A,2013-02-21 14:05:00,
2013-02-21 07:10:00,36.8,30.8,29.44,ESE,105,1.5,1.7,78,-99.99,,,0.00,2.632,rob ver 1B,2013-02-21 14:10:00,
2013-02-21 07:15:00,36.5,30.5,29.44,SE,142,1.9,2.2,78,-99.99,,,0.00,4.935,rob ver 1A,2013-02-21 14:15:00,
2013-02-21 07:20:00,36.3,30.7,29.47,SSE,148,3.7,4.0,80,-99.99,,,0.00,10.03,rob ver 1A,2013-02-21 14:20:00,
2013-02-21 07:25:00,36.3,30.9,29.44,SE,128,3.0,3.6,80,-99.99,,,0.00,18.1,rob ver 1B,2013-02-21 14:25:00,
2013-02-21 07:30:00,36.7,31.3,29.47,SE,132,3.2,3.6,80,-99.99,,,0.00,28.63,rob ver 1A,2013-02-21 14:30:00,
2013-02-21 07:35:00,37.0,31.4,29.47,ESE,111,3.0,3.4,79,-99.99,,,0.00,41.13,rob ver 1A,2013-02-21 14:35:00,
2013-02-21 07:40:00,37.3,31.3,29.47,ESE,118,2.9,3.1,78,-99.99,,,0.00,53.63,rob ver 1A,2013-02-21 14:40:00,
2013-02-21 07:45:00,37.7,31.4,29.47,ESE,104,2.6,2.8,77,-99.99,,,0.00,66.8,rob ver 1A,2013-02-21 14:45:00,
2013-02-21 07:50:00,38.1,31.4,29.47,SSE,154,3.9,4.5,76,-99.99,,,0.00,81.4,rob ver 1A,2013-02-21 14:50:00,
2013-02-21 07:55:00,38.6,31.6,29.47,SE,135,3.6,4.2,75,-99.99,,,0.00,95.6,rob ver 1A,2013-02-21 14:55:00,
2013-02-21 08:00:00,39.1,31.8,29.47,SE,133,3.4,3.8,74,-99.99,,,0.00,109.7,rob ver 1A,2013-02-21 15:00:00,
2013-02-21 08:05:00,39.6,31.8,29.47,SE,131,3.6,4.3,73,-99.99,,,0.00,124.4,rob ver 1A,2013-02-21 15:05:00,
2013-02-21 08:10:00,40.5,32.0,29.50,East,82,2.8,3.5,71,-99.99,,,0.00,139.8,rob ver 1B,2013-02-21 15:10:00,
2013-02-21 08:15:00,41.4,32.0,29.47,NE,54,3.2,3.8,69,-99.99,,,0.00,155.3,rob ver 1A,2013-02-21 15:15:00,
2013-02-21 08:20:00,41.6,32.1,29.50,ENE,59,3.3,4.1,68,-99.99,,,0.00,172.7,rob ver 1A,2013-02-21 15:20:00,
2013-02-21 08:25:00,42.5,32.3,29.50,ENE,59,2.3,3.6,66,-99.99,,,0.00,193.1,rob ver 1A,2013-02-21 15:25:00,
2013-02-21 08:30:00,43.2,32.4,29.50,ENE,61,2.8,3.6,65,-99.99,,,0.00,210.2,rob ver 1A,2013-02-21 15:30:00,
2013-02-21 08:35:00,43.7,32.5,29.50,NE,51,2.9,3.7,64,-99.99,,,0.00,223.7,rob ver 1B,2013-02-21 15:35:00,
2013-02-21 08:41:00,44.6,32.7,29.50,ENE,74,4.3,5.5,62,-99.99,,,0.00,244.8,rob ver 1A,2013-02-21 15:41:00,
2013-02-21 08:46:00,45.1,32.7,29.50,East,82,4.4,5.2,61,-99.99,,,0.00,261.5,rob ver 1A,2013-02-21 15:46:00,
2013-02-21 08:51:00,46.1,32.8,29.50,ENE,65,4.8,6.5,59,-99.99,,,0.00,278,rob ver 1A,2013-02-21 15:51:00,
2013-02-21 08:56:00,46.4,32.8,29.50,ENE,77,5.4,6.8,58,-99.99,,,0.00,295.1,rob ver 1A,2013-02-21 15:56:00,
2013-02-21 09:01:00,47.0,32.7,29.50,ENE,71,6.5,7.7,57,-99.99,,,0.00,312.7,rob ver 1A,2013-02-21 16:01:00,
2013-02-21 09:06:00,47.3,32.6,29.50,ENE,75,7.1,8.1,56,-99.99,,,0.00,329.4,rob ver 1A,2013-02-21 16:06:00,
2013-02-21 09:11:00,47.7,32.9,29.50,East,79,6.2,7.4,56,-99.99,,,0.00,346.2,rob ver 1A,2013-02-21 16:11:00,
2013-02-21 09:16:00,48.1,32.6,29.50,East,79,7.1,8.8,55,-99.99,,,0.00,362.3,rob ver 1A,2013-02-21 16:16:00,
2013-02-21 09:21:00,48.8,32.7,29.50,ENE,73,6.9,9.6,53,-99.99,,,0.00,378.8,rob ver 1A,2013-02-21 16:21:00,
2013-02-21 09:26:00,49.1,32.5,29.50,East,91,8.0,9.9,52,-99.99,,,0.00,395.4,rob ver 1A,2013-02-21 16:26:00,
2013-02-21 09:31:00,49.4,32.3,29.50,East,91,7.6,8.7,52,-99.99,,,0.00,411.2,rob ver 1A,2013-02-21 16:31:00,
2013-02-21 09:36:00,49.6,32.2,29.50,East,85,7.1,9.0,51,-99.99,,,0.00,426.8,rob ver 1A,2013-02-21 16:36:00,
2013-02-21 09:41:00,50.2,32.4,29.50,East,95,6.8,8.5,49,-99.99,,,0.00,441.4,rob ver 1A,2013-02-21 16:41:00,
2013-02-21 09:46:00,50.6,32.5,29.50,ENE,74,6.1,8.3,49,-99.99,,,0.00,457.6,rob ver 1A,2013-02-21 16:46:00,
2013-02-21 09:51:00,50.5,32.0,29.50,ESE,105,7.3,8.7,48,-99.99,,,0.00,472.1,rob ver 1A,2013-02-21 16:51:00,
2013-02-21 09:56:00,51.1,31.9,29.50,East,96,5.1,6.8,47,-99.99,,,0.00,489.3,rob ver 1A,2013-02-21 16:56:00,
2013-02-21 10:02:00,51.6,32.9,29.50,ESE,105,3.4,4.4,48,-99.99,,,0.00,503.6,rob ver 1A,2013-02-21 17:02:00,
2013-02-21 10:07:00,52.6,31.8,29.50,ENE,78,3.2,4.5,45,-99.99,,,0.00,516.9,rob ver 1A,2013-02-21 17:07:00,
2013-02-21 10:12:00,52.9,32.2,29.50,East,93,2.8,4.2,45,-99.99,,,0.00,531.8,rob ver 1A,2013-02-21 17:12:00,
2013-02-21 10:17:00,52.8,32.4,29.50,ESE,109,4.5,6.0,44,-99.99,,,0.00,545.6,rob ver 1A,2013-02-21 17:17:00,
2013-02-21 10:22:00,52.9,31.7,29.50,SE,126,4.2,5.6,43,-99.99,,,0.00,559.1,rob ver 1A,2013-02-21 17:22:00,
2013-02-21 10:27:00,53.5,31.3,29.50,East,80,3.9,5.1,42,-99.99,,,0.00,570.1,rob ver 1A,2013-02-21 17:27:00,
2013-02-21 10:32:00,53.9,30.8,29.50,East,94,5.0,6.5,40,-99.99,,,0.00,583,rob ver 1A,2013-02-21 17:32:00,
2013-02-21 10:37:00,54.3,30.7,29.50,ESE,102,3.0,4.8,39,-99.99,,,0.00,594.8,rob ver 1A,2013-02-21 17:37:00,
2013-02-21 10:42:00,55.5,31.0,29.50,SW,224,2.4,3.7,38,-99.99,,,0.00,606.7,rob ver 1A,2013-02-21 17:42:00,
2013-02-21 10:47:00,54.9,29.9,29.50,East,87,2.8,3.9,38,-99.99,,,0.00,617.7,rob ver 1B,2013-02-21 17:47:00,
2013-02-21 10:52:00,56.1,30.0,29.50,SE,132,5.3,7.1,36,-99.99,,,0.00,627.5,rob ver 1A,2013-02-21 17:52:00,
2013-02-21 10:57:00,54.4,29.8,29.50,SE,139,3.8,6.0,38,-99.99,,,0.00,636.7,rob ver 1A,2013-02-21 17:57:00,
2013-02-21 11:02:00,55.7,30.1,29.50,ESE,112,4.2,7.6,37,-99.99,,,0.00,647.9,rob ver 1A,2013-02-21 18:02:00,
2013-02-21 11:07:00,55.1,29.9,29.50,SE,138,2.6,4.8,36,-99.99,,,0.00,656.2,rob ver 1A,2013-02-21 18:07:00,
2013-02-21 11:12:00,55.5,28.5,29.50,East,90,3.5,5.7,35,-99.99,,,0.00,667.5,rob ver 1A,2013-02-21 18:12:00,
2013-02-21 11:17:00,56.4,29.7,29.50,East,83,3.4,5.5,34,-99.99,,,0.00,676.8,rob ver 1A,2013-02-21 18:17:00,
2013-02-21 11:23:00,56.3,28.5,29.50,ESE,109,5.0,7.3,34,-99.99,,,0.00,685,rob ver 1A,2013-02-21 18:23:00,
2013-02-21 11:28:00,56.9,29.3,29.50,South,176,3.1,4.7,34,-99.99,,,0.00,693.5,rob ver 1A,2013-02-21 18:28:00,
2013-02-21 11:33:00,56.8,28.9,29.50,SW,236,1.8,3.2,34,-99.99,,,0.00,700,rob ver 1A,2013-02-21 18:33:00,
2013-02-21 11:38:00,59.1,29.4,29.50,NE,36,2.9,4.3,32,-99.99,,,0.00,707,rob ver 1A,2013-02-21 18:38:00,
2013-02-21 11:43:00,57.2,29.0,29.50,ESE,116,3.3,5.1,33,-99.99,,,0.00,714,rob ver 1A,2013-02-21 18:43:00,
2013-02-21 11:48:00,57.8,29.7,29.50,SW,227,2.2,4.0,33,-99.99,,,0.00,719,rob ver 1A,2013-02-21 18:48:00,
2013-02-21 11:53:00,58.0,30.0,29.50,SSW,194,4.9,8.9,35,-99.99,,,0.00,725,rob ver 1A,2013-02-21 18:53:00,
2013-02-21 11:58:00,57.5,29.8,29.50,South,184,5.6,8.2,34,-99.99,,,0.00,729,rob ver 1A,2013-02-21 18:58:00,
2013-02-21 12:03:00,58.3,30.3,29.50,South,184,6.3,8.2,34,-99.99,,,0.00,736,rob ver 1A,2013-02-21 19:03:00,
2013-02-21 12:08:00,57.9,33.3,29.50,SE,140,5.0,7.0,39,-99.99,,,0.00,735,rob ver 1B,2013-02-21 19:08:00,
2013-02-21 12:13:00,57.8,32.4,29.50,SSE,163,5.8,8.5,38,-99.99,,,0.00,743,rob ver 1A,2013-02-21 19:13:00,
2013-02-21 12:18:00,57.8,33.9,29.50,SSE,159,6.4,10.0,39,-99.99,,,0.00,746,rob ver 1A,2013-02-21 19:18:00,
2013-02-21 12:23:00,57.3,33.7,29.50,South,185,4.3,7.7,40,-99.99,,,0.00,751,rob ver 1A,2013-02-21 19:23:00,
2013-02-21 12:28:00,57.9,34.4,29.50,SSW,197,3.2,5.5,40,-99.99,,,0.00,757,rob ver 1A,2013-02-21 19:28:00,
2013-02-21 12:33:00,57.9,34.3,29.50,SSE,164,6.0,7.6,41,-99.99,,,0.00,770,rob ver 1B,2013-02-21 19:33:00,
2013-02-21 12:38:00,58.8,34.5,29.47,ESE,118,9.2,10.6,39,-99.99,,,0.00,755,rob ver 1A,2013-02-21 19:38:00,
2013-02-21 12:43:00,58.5,34.7,29.47,SE,133,2.6,5.0,40,-99.99,,,0.00,177.9,rob ver 1A,2013-02-21 19:43:00,
2013-02-21 12:48:00,57.8,34.9,29.47,SSE,160,5.8,9.3,41,-99.99,,,0.00,888,rob ver 1A,2013-02-21 19:48:00,
2013-02-21 12:53:00,58.6,34.6,29.47,SSE,153,3.6,5.8,40,-99.99,,,0.00,833,rob ver 1A,2013-02-21 19:53:00,
2013-02-21 12:59:00,58.4,34.8,29.47,SSE,159,1.9,3.9,41,-99.99,,,0.00,783,rob ver 1A,2013-02-21 19:59:00,
2013-02-21 13:04:00,59.0,34.8,29.47,SSE,153,9.0,11.2,40,-99.99,,,0.00,780,rob ver 1B,2013-02-21 20:04:00,
2013-02-21 13:09:00,59.4,34.9,29.47,South,171,3.6,5.5,39,-99.99,,,0.00,812,rob ver 1A,2013-02-21 20:09:00,
2013-02-21 13:14:00,59.9,34.6,29.47,ESE,108,2.3,4.3,38,-99.99,,,0.00,854,rob ver 1A,2013-02-21 20:14:00,
2013-02-21 13:19:00,59.7,34.6,29.47,West,261,3.0,5.0,38,-99.99,,,0.00,868,rob ver 1A,2013-02-21 20:19:00,
2013-02-21 13:25:00,61.6,34.6,29.47,WSW,258,3.2,5.4,36,-99.99,,,0.00,596.4,rob ver 1A,2013-02-21 20:25:00,
2013-02-21 13:30:00,60.3,34.3,29.47,SE,135,6.5,8.9,38,-99.99,,,0.00,909,rob ver 1B,2013-02-21 20:30:00,
2013-02-21 13:35:00,60.6,34.4,29.47,SE,134,5.5,8.4,38,-99.99,,,0.00,425.2,rob ver 1A,2013-02-21 20:35:00,
2013-02-21 13:40:00,59.8,34.8,29.47,ESE,113,1.9,2.8,39,-99.99,,,0.00,220.1,rob ver 1A,2013-02-21 20:40:00,
2013-02-21 13:45:00,59.8,34.9,29.47,SSE,154,8.5,12.1,38,-99.99,,,0.00,231.7,rob ver 1A,2013-02-21 20:45:00,
2013-02-21 13:50:00,59.2,34.8,29.47,SSW,205,4.6,7.2,40,-99.99,,,0.00,295,rob ver 1A,2013-02-21 20:50:00,
2013-02-21 13:55:00,60.4,34.4,29.44,West,270,4.5,7.5,37,-99.99,,,0.00,329.8,rob ver 1A,2013-02-21 20:55:00,
2013-02-21 14:00:00,59.6,35.0,29.44,South,176,9.3,10.8,39,-99.99,,,0.00,234.3,rob ver 1B,2013-02-21 21:00:00,
2013-02-21 14:05:00,58.9,34.9,29.44,ESE,118,2.8,4.0,40,-99.99,,,0.00,271.7,rob ver 1A,2013-02-21 21:05:00,
2013-02-21 14:10:00,59.4,34.6,29.44,South,181,3.9,5.5,39,-99.99,,,0.00,239.2,rob ver 1A,2013-02-21 21:10:00,
2013-02-21 14:15:00,59.9,34.6,29.44,SW,220,3.3,5.7,37,-99.99,,,0.00,230.4,rob ver 1A,2013-02-21 21:15:00,
2013-02-21 14:20:00,59.4,34.3,29.44,NNE,30,2.2,3.9,39,-99.99,,,0.00,245.1,rob ver 1A,2013-02-21 21:20:00,
2013-02-21 14:25:00,59.1,34.3,29.44,East,94,2.4,4.0,39,-99.99,,,0.00,302.6,rob ver 1A,2013-02-21 21:25:00,
2013-02-21 14:30:00,60.0,34.3,29.44,South,179,1.3,2.4,37,-99.99,,,0.00,326.2,rob ver 1A,2013-02-21 21:30:00,
2013-02-21 14:35:00,60.9,33.8,29.44,NW,310,2.6,3.8,35,-99.99,,,0.00,564,rob ver 1A,2013-02-21 21:35:00,
2013-02-21 14:40:00,60.5,32.8,29.44,NNW,327,2.0,2.9,34,-99.99,,,0.00,335.4,rob ver 1A,2013-02-21 21:40:00,
2013-02-21 14:45:00,60.7,32.9,29.44,NNE,30,1.9,2.9,34,-99.99,,,0.00,294.1,rob ver 1A,2013-02-21 21:45:00,
2013-02-21 14:50:00,61.0,32.7,29.44,NNE,13,1.1,1.8,34,-99.99,,,0.00,340.7,rob ver 1A,2013-02-21 21:50:00,
2013-02-21 14:56:00,60.5,32.0,29.44,West,281,4.8,6.3,34,-99.99,,,0.00,786,rob ver 1A,2013-02-21 21:56:00,
2013-02-21 15:01:00,61.0,32.6,29.44,WSW,246,3.9,5.7,34,-99.99,,,0.00,538.6,rob ver 1A,2013-02-21 22:01:00,
2013-02-21 15:06:00,60.4,32.3,29.41,SSW,193,3.9,5.1,34,-99.99,,,0.00,289.5,rob ver 1A,2013-02-21 22:06:00,
2013-02-21 15:11:00,60.9,32.3,29.41,SW,218,6.0,7.9,34,-99.99,,,0.00,325.3,rob ver 1A,2013-02-21 22:11:00,
2013-02-21 15:16:00,60.7,32.4,29.41,SSW,204,2.9,4.0,34,-99.99,,,0.00,701,rob ver 1A,2013-02-21 22:16:00,
2013-02-21 15:21:00,61.6,31.6,29.41,SSW,200,1.7,4.5,32,-99.99,,,0.00,475.9,rob ver 1A,2013-02-21 22:21:00,
2013-02-21 15:26:00,62.1,31.7,29.41,ESE,121,2.4,4.4,31,-99.99,,,0.00,552.7,rob ver 1A,2013-02-21 22:26:00,
2013-02-21 15:31:00,62.2,31.4,29.41,SSW,201,8.8,14.5,31,-99.99,,,0.00,523.8,rob ver 1A,2013-02-21 22:31:00,
2013-02-21 15:36:00,61.2,29.8,29.41,SW,218,7.0,9.1,30,-99.99,,,0.00,313.6,rob ver 1A,2013-02-21 22:36:00,
2013-02-21 15:41:00,61.1,29.4,29.41,WSW,249,11.1,13.8,29,-99.99,,,0.00,247.1,rob ver 1A,2013-02-21 22:41:00,
2013-02-21 15:46:00,60.9,29.4,29.41,SW,230,7.6,9.7,30,-99.99,,,0.00,167.4,rob ver 1A,2013-02-21 22:46:00,
2013-02-21 15:51:00,60.5,31.8,29.41,WNW,291,9.2,12.9,33,-99.99,,,0.00,134.5,rob ver 1A,2013-02-21 22:51:00,
2013-02-21 15:56:00,60.3,31.6,29.41,WNW,284,7.7,9.5,33,-99.99,,,0.00,139.3,rob ver 1A,2013-02-21 22:56:00,
2013-02-21 16:01:00,59.9,31.1,29.41,West,267,6.3,8.3,33,-99.99,,,0.00,145,rob ver 1A,2013-02-21 23:01:00,
2013-02-21 16:06:00,60.0,31.0,29.41,NW,318,7.0,9.2,33,-99.99,,,0.00,149.6,rob ver 1A,2013-02-21 23:06:00,
2013-02-21 16:11:00,60.1,30.9,29.41,NW,315,6.2,8.5,32,-99.99,,,0.00,130,rob ver 1A,2013-02-21 23:11:00,
2013-02-21 16:16:00,60.2,31.2,29.41,NNW,338,6.9,8.1,33,-99.99,,,0.00,104.4,rob ver 1A,2013-02-21 23:16:00,
2013-02-21 16:21:00,59.8,30.8,29.41,NW,320,6.9,8.3,33,-99.99,,,0.00,82,rob ver 1A,2013-02-21 23:21:00,
2013-02-21 16:26:00,59.8,30.8,29.41,NNW,339,3.7,4.9,33,-99.99,,,0.00,71.6,rob ver 1A,2013-02-21 23:26:00,
2013-02-21 16:31:00,59.6,33.4,29.41,NE,56,6.1,7.9,41,-99.99,,,0.00,61.05,rob ver 1A,2013-02-21 23:31:00,
2013-02-21 16:36:00,58.2,36.9,29.41,East,81,7.6,9.7,44,-99.99,,,0.00,59.08,rob ver 1A,2013-02-21 23:36:00,
2013-02-21 16:41:00,57.9,36.5,29.41,East,83,5.8,7.0,44,-99.99,,,0.00,51.21,rob ver 1A,2013-02-21 23:41:00,
2013-02-21 16:47:00,57.7,37.2,29.41,East,82,11.8,15.7,45,-99.99,,,0.00,47.93,rob ver 1A,2013-02-21 23:47:00,
2013-02-21 16:52:00,57.7,36.8,29.41,East,79,12.8,15.5,45,-99.99,,,0.00,47.27,rob ver 1A,2013-02-21 23:52:00,
2013-02-21 16:57:00,57.5,37.4,29.41,ENE,67,12.9,16.3,47,-99.99,,,0.00,52.52,rob ver 1A,2013-02-21 23:57:00,
2013-02-21 17:02:00,57.3,37.4,29.41,ENE,57,11.4,13.8,47,-99.99,,,0.00,57.94,rob ver 1A,2013-02-22 00:02:00,
2013-02-21 17:07:00,56.9,39.6,29.41,ENE,74,12.3,14.5,52,-99.99,,,0.00,54.5,rob ver 1A,2013-02-22 00:07:00,
2013-02-21 17:12:00,56.6,39.3,29.41,ENE,76,10.5,14.0,52,-99.99,,,0.00,56.47,rob ver 1A,2013-02-22 00:12:00,
2013-02-21 17:17:00,56.3,41.5,29.44,East,87,12.2,14.7,58,-99.99,,,0.00,66.98,rob ver 1A,2013-02-22 00:17:00,
2013-02-21 17:22:00,55.9,42.1,29.44,East,82,11.6,14.8,59,-99.99,,,0.00,77.5,rob ver 1A,2013-02-22 00:22:00,
2013-02-21 17:27:00,55.6,41.8,29.44,East,79,10.8,13.1,59,-99.99,,,0.00,58.44,rob ver 1A,2013-02-22 00:27:00,
2013-02-21 17:32:00,55.3,41.3,29.44,East,82,10.1,13.1,59,-99.99,,,0.00,62.39,rob ver 1A,2013-02-22 00:32:00,
2013-02-21 17:37:00,55.0,41.1,29.44,ENE,68,11.4,13.4,59,-99.99,,,0.00,59.76,rob ver 1A,2013-02-22 00:37:00,
2013-02-21 17:42:00,55.3,41.2,29.44,ENE,76,8.8,11.0,59,-99.99,,,0.00,36.78,rob ver 1A,2013-02-22 00:42:00,
2013-02-21 17:47:00,54.8,41.8,29.44,ENE,73,10.7,13.7,61,-99.99,,,0.00,31.52,rob ver 1A,2013-02-22 00:47:00,
2013-02-21 17:52:00,54.6,42.6,29.44,ENE,66,10.0,13.3,63,-99.99,,,0.00,29.88,rob ver 1A,2013-02-22 00:52:00,
2013-02-21 17:57:00,54.4,41.4,29.44,ENE,62,13.8,16.5,61,-99.99,,,0.00,28.9,rob ver 1A,2013-02-22 00:57:00,
2013-02-21 18:02:00,54.2,41.8,29.44,ENE,67,12.9,16.6,63,-99.99,,,0.00,29.55,rob ver 1A,2013-02-22 01:02:00,
2013-02-21 18:07:00,53.5,41.8,29.44,ENE,60,12.7,16.9,64,-99.99,,,0.00,25.61,rob ver 1A,2013-02-22 01:07:00,
2013-02-21 18:13:00,53.7,42.1,29.44,ENE,66,11.4,14.0,64,-99.99,,,0.00,24.3,rob ver 1A,2013-02-22 01:13:00,
2013-02-21 18:18:00,53.3,42.0,29.44,ENE,64,12.9,16.8,64,-99.99,,,0.00,22.33,rob ver 1A,2013-02-22 01:18:00,
2013-02-21 18:23:00,53.2,41.8,29.44,ENE,69,11.0,14.3,65,-99.99,,,0.00,15.11,rob ver 1A,2013-02-22 01:23:00,
2013-02-21 18:28:00,53.0,42.0,29.44,ENE,74,12.7,17.0,66,-99.99,,,0.00,6.569,rob ver 1A,2013-02-22 01:28:00,
2013-02-21 18:33:00,52.8,42.4,29.44,ENE,74,10.9,14.1,67,-99.99,,,0.00,2.299,rob ver 1A,2013-02-22 01:33:00,
2013-02-21 18:38:00,52.6,42.0,29.44,ENE,65,11.3,15.1,67,-99.99,,,0.00,.985,rob ver 1A,2013-02-22 01:38:00,
2013-02-21 18:43:00,52.4,41.3,29.47,ENE,65,12.5,18.3,65,-99.99,,,0.00,.328,rob ver 1A,2013-02-22 01:43:00,
2013-02-21 18:48:00,52.3,42.1,29.47,ENE,66,10.8,14.0,68,-99.99,,,0.00,0,rob ver 1B,2013-02-22 01:48:00,
2013-02-21 18:53:00,52.0,42.0,29.47,ENE,69,12.6,16.9,68,-99.99,,,0.00,0,rob ver 1A,2013-02-22 01:53:00,
2013-02-21 18:58:00,51.8,42.1,29.47,ENE,66,12.0,16.3,69,-99.99,,,0.00,0,rob ver 1A,2013-02-22 01:58:00,
2013-02-21 19:03:00,51.7,42.5,29.47,ENE,70,11.2,15.0,70,-99.99,,,0.00,0,rob ver 1A,2013-02-22 02:03:00,
2013-02-21 19:08:00,51.7,42.5,29.47,ENE,57,9.0,12.3,71,-99.99,,,0.00,0,rob ver 1A,2013-02-22 02:08:00,
2013-02-21 19:13:00,51.4,42.0,29.47,ENE,57,10.8,14.2,70,-99.99,,,0.00,0,rob ver 1B,2013-02-22 02:13:00,
2013-02-21 19:18:00,51.2,41.9,29.47,NE,56,12.2,18.8,70,-99.99,,,0.00,0,rob ver 1A,2013-02-22 02:18:00,
2013-02-21 19:23:00,51.2,41.6,29.47,ENE,57,12.7,16.8,69,-99.99,,,0.00,0,rob ver 1A,2013-02-22 02:23:00,
2013-02-21 19:28:00,51.1,41.6,29.47,NE,50,12.1,16.8,69,-99.99,,,0.00,0,rob ver 1A,2013-02-22 02:28:00,
2013-02-21 19:33:00,51.1,41.7,29.47,NE,53,10.4,14.9,70,-99.99,,,0.00,0,rob ver 1A,2013-02-22 02:33:00,
2013-02-21 19:38:00,51.0,42.5,29.47,NE,47,10.7,13.6,72,-99.99,,,0.00,0,rob ver 1A,2013-02-22 02:38:00,
2013-02-21 19:43:00,50.8,42.6,29.47,ENE,61,9.2,12.1,73,-99.99,,,0.00,0,rob ver 1A,2013-02-22 02:43:00,
2013-02-21 19:48:00,50.8,42.6,29.47,ENE,63,9.7,12.2,73,-99.99,,,0.00,0,rob ver 1A,2013-02-22 02:48:00,
2013-02-21 19:53:00,50.6,42.5,29.47,ENE,66,7.5,11.3,73,-99.99,,,0.00,0,rob ver 1A,2013-02-22 02:53:00,
2013-02-21 19:59:00,50.5,42.3,29.47,ENE,64,8.8,11.0,73,-99.99,,,0.00,0,rob ver 1A,2013-02-22 02:59:00,
2013-02-21 20:04:00,50.5,41.9,29.50,ENE,69,10.1,14.1,72,-99.99,,,0.00,0,rob ver 1A,2013-02-22 03:04:00,
2013-02-21 20:09:00,50.4,41.8,29.50,ENE,75,10.2,13.2,72,-99.99,,,0.00,0,rob ver 1A,2013-02-22 03:09:00,
2013-02-21 20:14:00,50.2,42.1,29.50,East,83,9.0,12.1,73,-99.99,,,0.00,0,rob ver 1A,2013-02-22 03:14:00,
2013-02-21 20:19:00,50.1,42.5,29.50,East,85,9.9,12.0,75,-99.99,,,0.00,0,rob ver 1A,2013-02-22 03:19:00,
2013-02-21 20:24:00,49.9,42.7,29.50,East,87,8.4,10.8,76,-99.99,,,0.00,0,rob ver 1B,2013-02-22 03:24:00,
2013-02-21 20:29:00,49.8,42.6,29.50,East,84,7.9,10.6,75,-99.99,,,0.00,0,rob ver 1A,2013-02-22 03:29:00,
2013-02-21 20:34:00,49.7,42.2,29.50,East,82,8.2,10.4,75,-99.99,,,0.00,0,rob ver 1A,2013-02-22 03:34:00,
2013-02-21 20:39:00,49.6,42.1,29.50,ENE,76,8.7,10.8,75,-99.99,,,0.00,0,rob ver 1A,2013-02-22 03:39:00,
2013-02-21 20:44:00,49.5,41.9,29.50,ENE,73,9.3,13.4,74,-99.99,,,0.00,0,rob ver 1A,2013-02-22 03:44:00,
2013-02-21 20:49:00,49.4,41.8,29.50,ENE,70,9.7,11.9,74,-99.99,,,0.00,0,rob ver 1A,2013-02-22 03:49:00,
2013-02-21 20:54:00,49.4,41.6,29.50,ENE,73,10.0,13.1,74,-99.99,,,0.00,0,rob ver 1A,2013-02-22 03:54:00,
2013-02-21 20:59:00,49.2,41.6,29.50,ENE,71,9.4,13.4,74,-99.99,,,0.00,0,rob ver 1A,2013-02-22 03:59:00,
2013-02-21 21:04:00,49.1,41.7,29.50,ENE,69,9.3,13.0,75,-99.99,,,0.00,0,rob ver 1A,2013-02-22 04:04:00,
2013-02-21 21:09:00,49.0,41.7,29.50,ENE,66,7.8,11.4,75,-99.99,,,0.00,0,rob ver 1A,2013-02-22 04:09:00,
2013-02-21 21:14:00,49.0,41.6,29.50,ENE,68,6.7,9.6,75,-99.99,,,0.00,0,rob ver 1A,2013-02-22 04:14:00,
2013-02-21 21:19:00,48.9,41.4,29.53,ENE,65,6.6,9.0,75,-99.99,,,0.00,0,rob ver 1A,2013-02-22 04:19:00,
2013-02-21 21:24:00,48.8,41.3,29.53,ENE,62,8.0,10.6,75,-99.99,,,0.00,0,rob ver 1A,2013-02-22 04:24:00,
2013-02-21 21:29:00,48.6,41.2,29.53,ENE,67,6.0,7.8,75,-99.99,,,0.00,0,rob ver 1A,2013-02-22 04:29:00,
2013-02-21 21:34:00,48.5,41.2,29.53,ENE,69,6.1,8.8,75,-99.99,,,0.00,0,rob ver 1A,2013-02-22 04:34:00,
2013-02-21 21:39:00,48.4,41.3,29.53,ENE,69,8.1,10.4,76,-99.99,,,0.00,0,rob ver 1A,2013-02-22 04:39:00,
2013-02-21 21:44:00,48.2,41.4,29.53,ENE,77,8.1,10.3,77,-99.99,,,0.00,0,rob ver 1A,2013-02-22 04:44:00,
2013-02-21 21:50:00,48.0,41.5,29.53,ENE,70,8.1,10.8,77,-99.99,,,0.00,0,rob ver 1A,2013-02-22 04:50:00,
2013-02-21 21:55:00,48.0,41.5,29.53,ENE,67,8.8,11.0,78,-99.99,,,0.00,0,rob ver 1A,2013-02-22 04:55:00,
2013-02-21 22:00:00,47.9,41.3,29.53,ENE,70,8.5,11.9,77,-99.99,,,0.00,0,rob ver 1A,2013-02-22 05:00:00,
2013-02-21 22:01:00,47.9,41.2,29.53,ENE,66,7.1,9.7,77,-99.99,,,0.00,0,rob ver 1A,2013-02-22 05:01:00,
2013-02-21 22:03:00,47.9,41.1,29.53,ENE,70,7.4,9.6,77,-99.99,,,0.00,0,rob ver 1A,2013-02-22 05:03:00,
2013-02-21 22:08:00,47.9,40.9,29.53,ENE,70,7.2,9.5,76,-99.99,,,0.00,0,rob ver 1A,2013-02-22 05:08:00,
2013-02-21 22:13:00,47.8,40.8,29.53,ENE,76,9.0,11.3,76,-99.99,,,0.00,0,rob ver 1A,2013-02-22 05:13:00,
2013-02-21 22:18:00,47.8,40.7,29.53,East,81,10.1,13.1,76,-99.99,,,0.00,0,rob ver 1A,2013-02-22 05:18:00,
2013-02-21 22:23:00,47.6,40.7,29.53,East,85,7.6,10.1,77,-99.99,,,0.00,0,rob ver 1A,2013-02-22 05:23:00,
2013-02-21 22:28:00,47.4,40.8,29.53,East,84,7.6,9.5,77,-99.99,,,0.00,0,rob ver 1A,2013-02-22 05:28:00,
2013-02-21 22:33:00,47.4,40.9,29.53,East,85,7.2,9.1,78,-99.99,,,0.00,0,rob ver 1A,2013-02-22 05:33:00,
2013-02-21 22:38:00,47.3,40.9,29.53,East,86,6.7,8.3,78,-99.99,,,0.00,0,rob ver 1A,2013-02-22 05:38:00,
2013-02-21 22:43:00,47.2,40.9,29.53,East,81,6.3,8.0,78,-99.99,,,0.00,0,rob ver 1A,2013-02-22 05:43:00,
2013-02-21 22:48:00,47.1,40.8,29.53,East,79,5.5,6.9,78,-99.99,,,0.00,0,rob ver 1A,2013-02-22 05:48:00,
2013-02-21 22:53:00,47.0,40.8,29.53,East,81,5.6,7.0,78,-99.99,,,0.00,0,rob ver 1A,2013-02-22 05:53:00,
2013-02-21 22:58:00,46.8,40.7,29.53,ENE,78,5.5,6.5,79,-99.99,,,0.00,0,rob ver 1A,2013-02-22 05:58:00,
2013-02-21 23:03:00,46.6,40.5,29.53,ENE,76,5.4,6.8,79,-99.99,,,0.00,0,rob ver 1A,2013-02-22 06:03:00,
2013-02-21 23:08:00,46.3,40.3,29.53,ENE,65,4.8,6.9,79,-99.99,,,0.00,0,rob ver 1A,2013-02-22 06:08:00,
2013-02-21 23:13:00,46.2,40.2,29.53,ENE,64,5.4,7.5,79,-99.99,,,0.00,0,rob ver 1B,2013-02-22 06:13:00,
2013-02-21 23:19:00,46.0,40.0,29.53,NE,54,4.3,5.5,79,-99.99,,,0.00,0,rob ver 1A,2013-02-22 06:19:00,
2013-02-21 23:24:00,45.8,39.7,29.56,NE,49,3.7,4.9,79,-99.99,,,0.00,0,rob ver 1A,2013-02-22 06:24:00,
2013-02-21 23:29:00,45.6,39.4,29.53,NE,48,4.6,5.8,78,-99.99,,,0.00,0,rob ver 1A,2013-02-22 06:29:00,
2013-02-21 23:34:00,45.5,39.3,29.53,NE,56,4.1,5.5,78,-99.99,,,0.00,0,rob ver 1A,2013-02-22 06:34:00,
2013-02-21 23:39:00,45.6,39.3,29.56,ENE,59,4.3,5.3,78,-99.99,,,0.00,0,rob ver 1A,2013-02-22 06:39:00,
2013-02-21 23:44:00,45.6,39.2,29.56,ENE,65,3.5,4.3,78,-99.99,,,0.00,0,rob ver 1A,2013-02-22 06:44:00,
2013-02-21 23:49:00,45.3,39.1,29.56,ENE,64,3.8,5.0,78,-99.99,,,0.00,0,rob ver 1A,2013-02-22 06:49:00,
2013-02-21 23:54:00,45.1,39.1,29.56,NE,55,4.7,5.8,79,-99.99,,,0.00,0,rob ver 1A,2013-02-22 06:54:00,
2013-02-21 23:59:00,45.0,39.0,29.56,NE,50,5.5,6.8,79,-99.99,,,0.00,0,rob ver 1A,2013-02-22 06:59:00,